sensor_id;sensor_type;location;lat;lon;timestamp;P1;durP1;ratioP1;P2;durP2;ratioP2
67528;SDS011;54366;51.980;5.856;2023-04-08T00:01:49;7.78;;;7.07;;
67528;SDS011;54366;51.980;5.856;2023-04-08T00:04:15;7.93;;;7.22;;
67528;SDS011;54366;51.980;5.856;2023-04-08T00:06:48;7.97;;;7.28;;
67528;SDS011;54366;51.980;5.856;2023-04-08T00:09:21;7.65;;;6.95;;
67528;SDS011;54366;51.980;5.856;2023-04-08T00:11:54;7.93;;;7.22;;
67528;SDS011;54366;51.980;5.856;2023-04-08T00:14:28;7.68;;;6.97;;
67528;SDS011;54366;51.980;5.856;2023-04-08T00:16:54;7.57;;;6.97;;
67528;SDS011;54366;51.980;5.856;2023-04-08T00:19:27;7.10;;;6.50;;
67528;SDS011;54366;51.980;5.856;2023-04-08T00:21:53;8.07;;;7.28;;
67528;SDS011;54366;51.980;5.856;2023-04-08T00:24:26;8.32;;;7.60;;
67528;SDS011;54366;51.980;5.856;2023-04-08T00:26:59;8.32;;;7.55;;
67528;SDS011;54366;51.980;5.856;2023-04-08T00:29:25;8.63;;;7.82;;
67528;SDS011;54366;51.980;5.856;2023-04-08T00:31:58;8.48;;;7.68;;
67528;SDS011;54366;51.980;5.856;2023-04-08T00:34:31;8.93;;;8.07;;
67528;SDS011;54366;51.980;5.856;2023-04-08T00:37:04;6.40;;;5.80;;
67528;SDS011;54366;51.980;5.856;2023-04-08T00:39:31;5.03;;;4.63;;
67528;SDS011;54366;51.980;5.856;2023-04-08T00:42:04;5.32;;;4.93;;
67528;SDS011;54366;51.980;5.856;2023-04-08T00:44:30;5.07;;;4.68;;
67528;SDS011;54366;51.980;5.856;2023-04-08T00:47:03;4.90;;;4.50;;
67528;SDS011;54366;51.980;5.856;2023-04-08T00:49:36;4.80;;;4.40;;
67528;SDS011;54366;51.980;5.856;2023-04-08T00:52:15;4.55;;;4.15;;
67528;SDS011;54366;51.980;5.856;2023-04-08T00:54:55;4.72;;;4.43;;
67528;SDS011;54366;51.980;5.856;2023-04-08T00:57:28;4.28;;;3.97;;
67528;SDS011;54366;51.980;5.856;2023-04-08T00:59:54;4.60;;;4.20;;
67528;SDS011;54366;51.980;5.856;2023-04-08T01:05:32;4.22;;;3.92;;
67528;SDS011;54366;51.980;5.856;2023-04-08T01:08:12;4.25;;;3.95;;
67528;SDS011;54366;51.980;5.856;2023-04-08T01:10:47;3.97;;;3.67;;
67528;SDS011;54366;51.980;5.856;2023-04-08T01:13:25;3.45;;;3.20;;
67528;SDS011;54366;51.980;5.856;2023-04-08T01:16:01;4.45;;;4.13;;
67528;SDS011;54366;51.980;5.856;2023-04-08T01:18:34;4.82;;;4.43;;
67528;SDS011;54366;51.980;5.856;2023-04-08T01:21:08;3.90;;;3.60;;
67528;SDS011;54366;51.980;5.856;2023-04-08T01:26:58;4.85;;;4.45;;
67528;SDS011;54366;51.980;5.856;2023-04-08T01:29:33;5.40;;;4.72;;
67528;SDS011;54366;51.980;5.856;2023-04-08T01:32:01;12.43;;;5.05;;
67528;SDS011;54366;51.980;5.856;2023-04-08T01:34:34;4.28;;;3.97;;
67528;SDS011;54366;51.980;5.856;2023-04-08T01:37:08;3.88;;;3.58;;
67528;SDS011;54366;51.980;5.856;2023-04-08T01:39:43;4.03;;;3.72;;
67528;SDS011;54366;51.980;5.856;2023-04-08T01:42:11;4.13;;;3.83;;
67528;SDS011;54366;51.980;5.856;2023-04-08T01:44:44;3.22;;;3.03;;
67528;SDS011;54366;51.980;5.856;2023-04-08T01:47:23;4.22;;;3.92;;
67528;SDS011;54366;51.980;5.856;2023-04-08T01:49:57;4.20;;;3.90;;
67528;SDS011;54366;51.980;5.856;2023-04-08T01:52:33;4.70;;;4.40;;
67528;SDS011;54366;51.980;5.856;2023-04-08T01:55:08;4.03;;;3.72;;
67528;SDS011;54366;51.980;5.856;2023-04-08T01:57:42;3.70;;;3.45;;
67528;SDS011;54366;51.980;5.856;2023-04-08T02:00:20;3.47;;;3.22;;
67528;SDS011;54366;51.980;5.856;2023-04-08T02:02:57;3.15;;;2.95;;
67528;SDS011;54366;51.980;5.856;2023-04-08T02:05:31;3.00;;;2.80;;
67528;SDS011;54366;51.980;5.856;2023-04-08T02:07:59;2.95;;;2.75;;
67528;SDS011;54366;51.980;5.856;2023-04-08T02:10:32;2.25;;;2.15;;
67528;SDS011;54366;51.980;5.856;2023-04-08T02:13:05;2.25;;;2.15;;
67528;SDS011;54366;51.980;5.856;2023-04-08T02:15:40;2.08;;;1.98;;
67528;SDS011;54366;51.980;5.856;2023-04-08T02:18:24;1.60;;;1.50;;
67528;SDS011;54366;51.980;5.856;2023-04-08T02:21:10;1.60;;;1.50;;
67528;SDS011;54366;51.980;5.856;2023-04-08T02:23:47;1.90;;;1.80;;
67528;SDS011;54366;51.980;5.856;2023-04-08T02:26:16;1.90;;;1.80;;
67528;SDS011;54366;51.980;5.856;2023-04-08T02:31:24;2.95;;;2.60;;
67528;SDS011;54366;51.980;5.856;2023-04-08T02:33:58;3.50;;;3.20;;
67528;SDS011;54366;51.980;5.856;2023-04-08T02:36:29;2.58;;;2.47;;
67528;SDS011;54366;51.980;5.856;2023-04-08T02:41:57;3.20;;;3.00;;
67528;SDS011;54366;51.980;5.856;2023-04-08T02:44:30;3.58;;;3.38;;
67528;SDS011;54366;51.980;5.856;2023-04-08T02:47:00;3.63;;;3.42;;
67528;SDS011;54366;51.980;5.856;2023-04-08T02:49:34;3.35;;;3.15;;
67528;SDS011;54366;51.980;5.856;2023-04-08T02:52:07;3.60;;;3.30;;
67528;SDS011;54366;51.980;5.856;2023-04-08T02:54:40;3.75;;;3.50;;
67528;SDS011;54366;51.980;5.856;2023-04-08T02:57:13;2.80;;;2.60;;
67528;SDS011;54366;51.980;5.856;2023-04-08T02:59:46;2.88;;;2.67;;
67528;SDS011;54366;51.980;5.856;2023-04-08T03:02:12;3.13;;;2.92;;
67528;SDS011;54366;51.980;5.856;2023-04-08T03:04:45;2.65;;;2.55;;
67528;SDS011;54366;51.980;5.856;2023-04-08T03:07:18;3.10;;;2.90;;
67528;SDS011;54366;51.980;5.856;2023-04-08T03:09:51;2.72;;;2.53;;
67528;SDS011;54366;51.980;5.856;2023-04-08T03:12:20;3.00;;;2.80;;
67528;SDS011;54366;51.980;5.856;2023-04-08T03:14:53;3.10;;;2.90;;
67528;SDS011;54366;51.980;5.856;2023-04-08T03:17:26;3.00;;;2.70;;
67528;SDS011;54366;51.980;5.856;2023-04-08T03:19:59;3.20;;;3.00;;
67528;SDS011;54366;51.980;5.856;2023-04-08T03:22:33;3.63;;;3.33;;
67528;SDS011;54366;51.980;5.856;2023-04-08T03:25:07;3.67;;;3.47;;
67528;SDS011;54366;51.980;5.856;2023-04-08T03:27:40;4.20;;;3.88;;
67528;SDS011;54366;51.980;5.856;2023-04-08T03:30:13;3.80;;;3.50;;
67528;SDS011;54366;51.980;5.856;2023-04-08T03:32:46;4.30;;;3.95;;
67528;SDS011;54366;51.980;5.856;2023-04-08T03:35:19;3.70;;;3.40;;
67528;SDS011;54366;51.980;5.856;2023-04-08T03:37:52;2.70;;;2.55;;
67528;SDS011;54366;51.980;5.856;2023-04-08T03:40:26;2.13;;;2.03;;
67528;SDS011;54366;51.980;5.856;2023-04-08T03:42:59;1.73;;;1.63;;
67528;SDS011;54366;51.980;5.856;2023-04-08T03:45:32;2.20;;;2.10;;
67528;SDS011;54366;51.980;5.856;2023-04-08T03:48:05;2.67;;;2.47;;
67528;SDS011;54366;51.980;5.856;2023-04-08T03:50:38;2.90;;;2.70;;
67528;SDS011;54366;51.980;5.856;2023-04-08T03:53:04;3.33;;;3.03;;
67528;SDS011;54366;51.980;5.856;2023-04-08T03:55:37;3.88;;;3.50;;
67528;SDS011;54366;51.980;5.856;2023-04-08T03:58:04;3.72;;;3.42;;
67528;SDS011;54366;51.980;5.856;2023-04-08T04:00:37;4.20;;;3.90;;
67528;SDS011;54366;51.980;5.856;2023-04-08T04:03:03;4.22;;;3.92;;
67528;SDS011;54366;51.980;5.856;2023-04-08T04:05:36;4.40;;;4.00;;
67528;SDS011;54366;51.980;5.856;2023-04-08T04:08:09;4.10;;;3.80;;
67528;SDS011;54366;51.980;5.856;2023-04-08T04:10:35;3.55;;;3.28;;
67528;SDS011;54366;51.980;5.856;2023-04-08T04:13:08;4.35;;;3.95;;
67528;SDS011;54366;51.980;5.856;2023-04-08T04:15:38;3.97;;;3.67;;
67528;SDS011;54366;51.980;5.856;2023-04-08T04:18:11;3.50;;;3.20;;
67528;SDS011;54366;51.980;5.856;2023-04-08T04:20:44;4.13;;;3.72;;
67528;SDS011;54366;51.980;5.856;2023-04-08T04:23:10;4.07;;;3.75;;
67528;SDS011;54366;51.980;5.856;2023-04-08T04:25:43;4.10;;;3.80;;
67528;SDS011;54366;51.980;5.856;2023-04-08T04:28:16;4.78;;;4.30;;
67528;SDS011;54366;51.980;5.856;2023-04-08T04:30:49;5.45;;;4.70;;
67528;SDS011;54366;51.980;5.856;2023-04-08T04:33:22;6.50;;;5.90;;
67528;SDS011;54366;51.980;5.856;2023-04-08T04:35:48;6.40;;;5.80;;
67528;SDS011;54366;51.980;5.856;2023-04-08T04:38:21;5.55;;;5.05;;
67528;SDS011;54366;51.980;5.856;2023-04-08T04:40:47;5.85;;;5.35;;
67528;SDS011;54366;51.980;5.856;2023-04-08T04:43:26;6.10;;;5.50;;
67528;SDS011;54366;51.980;5.856;2023-04-08T04:46:06;5.85;;;5.22;;
67528;SDS011;54366;51.980;5.856;2023-04-08T04:48:40;6.47;;;5.88;;
67528;SDS011;54366;51.980;5.856;2023-04-08T04:51:13;6.50;;;5.90;;
67528;SDS011;54366;51.980;5.856;2023-04-08T04:53:40;8.40;;;7.55;;
67528;SDS011;54366;51.980;5.856;2023-04-08T04:56:13;9.98;;;9.07;;
67528;SDS011;54366;51.980;5.856;2023-04-08T04:58:46;10.90;;;8.90;;
67528;SDS011;54366;51.980;5.856;2023-04-08T05:01:19;9.13;;;8.23;;
67528;SDS011;54366;51.980;5.856;2023-04-08T05:03:52;9.93;;;8.95;;
67528;SDS011;54366;51.980;5.856;2023-04-08T05:06:25;9.45;;;8.55;;
67528;SDS011;54366;51.980;5.856;2023-04-08T05:08:58;10.05;;;9.05;;
67528;SDS011;54366;51.980;5.856;2023-04-08T05:11:24;10.40;;;9.40;;
67528;SDS011;54366;51.980;5.856;2023-04-08T05:13:57;11.68;;;10.48;;
67528;SDS011;54366;51.980;5.856;2023-04-08T05:16:30;11.10;;;10.00;;
67528;SDS011;54366;51.980;5.856;2023-04-08T05:18:56;12.43;;;11.13;;
67528;SDS011;54366;51.980;5.856;2023-04-08T05:21:29;12.40;;;11.10;;
67528;SDS011;54366;51.980;5.856;2023-04-08T05:24:02;11.73;;;10.63;;
67528;SDS011;54366;51.980;5.856;2023-04-08T05:26:35;12.25;;;10.95;;
67528;SDS011;54366;51.980;5.856;2023-04-08T05:29:02;11.48;;;10.27;;
67528;SDS011;54366;51.980;5.856;2023-04-08T05:31:35;11.45;;;10.25;;
67528;SDS011;54366;51.980;5.856;2023-04-08T05:34:08;11.15;;;10.05;;
67528;SDS011;54366;51.980;5.856;2023-04-08T05:36:35;11.50;;;10.40;;
67528;SDS011;54366;51.980;5.856;2023-04-08T05:39:07;11.82;;;10.63;;
67528;SDS011;54366;51.980;5.856;2023-04-08T05:41:40;11.50;;;10.32;;
67528;SDS011;54366;51.980;5.856;2023-04-08T05:44:19;10.65;;;9.65;;
67528;SDS011;54366;51.980;5.856;2023-04-08T05:46:52;11.15;;;9.85;;
67528;SDS011;54366;51.980;5.856;2023-04-08T05:49:26;11.77;;;10.60;;
67528;SDS011;54366;51.980;5.856;2023-04-08T05:51:59;11.82;;;10.63;;
67528;SDS011;54366;51.980;5.856;2023-04-08T05:54:32;11.32;;;10.23;;
67528;SDS011;54366;51.980;5.856;2023-04-08T05:57:05;10.65;;;9.60;;
67528;SDS011;54366;51.980;5.856;2023-04-08T05:59:31;11.82;;;10.60;;
67528;SDS011;54366;51.980;5.856;2023-04-08T06:02:04;11.70;;;10.38;;
67528;SDS011;54366;51.980;5.856;2023-04-08T06:04:37;11.18;;;10.07;;
67528;SDS011;54366;51.980;5.856;2023-04-08T06:07:10;11.13;;;9.95;;
67528;SDS011;54366;51.980;5.856;2023-04-08T06:09:43;11.98;;;10.77;;
67528;SDS011;54366;51.980;5.856;2023-04-08T06:12:16;13.75;;;12.35;;
67528;SDS011;54366;51.980;5.856;2023-04-08T06:14:42;12.45;;;11.25;;
67528;SDS011;54366;51.980;5.856;2023-04-08T06:17:15;12.15;;;10.95;;
67528;SDS011;54366;51.980;5.856;2023-04-08T06:19:41;9.77;;;8.88;;
67528;SDS011;54366;51.980;5.856;2023-04-08T06:22:14;9.20;;;8.20;;
67528;SDS011;54366;51.980;5.856;2023-04-08T06:24:40;9.98;;;9.02;;
67528;SDS011;54366;51.980;5.856;2023-04-08T06:27:13;9.50;;;8.60;;
67528;SDS011;54366;51.980;5.856;2023-04-08T06:29:47;9.35;;;8.40;;
67528;SDS011;54366;51.980;5.856;2023-04-08T06:32:20;9.18;;;8.27;;
67528;SDS011;54366;51.980;5.856;2023-04-08T06:34:53;9.88;;;8.63;;
67528;SDS011;54366;51.980;5.856;2023-04-08T06:37:26;11.73;;;10.52;;
67528;SDS011;54366;51.980;5.856;2023-04-08T06:39:59;11.52;;;10.32;;
67528;SDS011;54366;51.980;5.856;2023-04-08T06:42:25;11.88;;;10.65;;
67528;SDS011;54366;51.980;5.856;2023-04-08T06:45:07;10.52;;;9.45;;
67528;SDS011;54366;51.980;5.856;2023-04-08T06:47:41;10.60;;;9.50;;
67528;SDS011;54366;51.980;5.856;2023-04-08T06:50:14;10.02;;;8.98;;
67528;SDS011;54366;51.980;5.856;2023-04-08T06:52:41;11.10;;;10.00;;
67528;SDS011;54366;51.980;5.856;2023-04-08T06:55:14;13.40;;;11.70;;
67528;SDS011;54366;51.980;5.856;2023-04-08T06:57:47;12.70;;;11.40;;
67528;SDS011;54366;51.980;5.856;2023-04-08T07:00:13;12.30;;;11.07;;
67528;SDS011;54366;51.980;5.856;2023-04-08T07:02:46;13.18;;;11.77;;
67528;SDS011;54366;51.980;5.856;2023-04-08T07:05:19;12.65;;;10.80;;
67528;SDS011;54366;51.980;5.856;2023-04-08T07:07:46;13.82;;;12.45;;
67528;SDS011;54366;51.980;5.856;2023-04-08T07:10:18;12.18;;;10.98;;
67528;SDS011;54366;51.980;5.856;2023-04-08T07:12:51;11.88;;;10.75;;
67528;SDS011;54366;51.980;5.856;2023-04-08T07:15:25;13.55;;;11.07;;
67528;SDS011;54366;51.980;5.856;2023-04-08T07:17:51;13.55;;;11.82;;
67528;SDS011;54366;51.980;5.856;2023-04-08T07:20:27;11.30;;;10.20;;
67528;SDS011;54366;51.980;5.856;2023-04-08T07:23:00;11.60;;;10.45;;
67528;SDS011;54366;51.980;5.856;2023-04-08T07:25:33;10.07;;;9.07;;
67528;SDS011;54366;51.980;5.856;2023-04-08T07:28:09;11.45;;;10.27;;
67528;SDS011;54366;51.980;5.856;2023-04-08T07:30:42;11.63;;;10.43;;
67528;SDS011;54366;51.980;5.856;2023-04-08T07:33:15;12.25;;;10.27;;
67528;SDS011;54366;51.980;5.856;2023-04-08T07:35:48;11.55;;;10.27;;
67528;SDS011;54366;51.980;5.856;2023-04-08T07:38:21;10.52;;;9.25;;
67528;SDS011;54366;51.980;5.856;2023-04-08T07:40:48;10.63;;;9.52;;
67528;SDS011;54366;51.980;5.856;2023-04-08T07:43:21;10.93;;;9.82;;
67528;SDS011;54366;51.980;5.856;2023-04-08T07:46:01;9.70;;;8.70;;
67528;SDS011;54366;51.980;5.856;2023-04-08T07:48:29;9.93;;;8.93;;
67528;SDS011;54366;51.980;5.856;2023-04-08T07:51:03;10.70;;;9.60;;
67528;SDS011;54366;51.980;5.856;2023-04-08T07:53:37;9.77;;;8.88;;
67528;SDS011;54366;51.980;5.856;2023-04-08T07:56:12;9.35;;;8.45;;
67528;SDS011;54366;51.980;5.856;2023-04-08T08:01:38;10.82;;;9.73;;
67528;SDS011;54366;51.980;5.856;2023-04-08T08:04:11;9.82;;;8.65;;
67528;SDS011;54366;51.980;5.856;2023-04-08T08:06:44;11.15;;;9.38;;
67528;SDS011;54366;51.980;5.856;2023-04-08T08:09:12;10.32;;;9.23;;
67528;SDS011;54366;51.980;5.856;2023-04-08T08:11:45;10.00;;;9.07;;
67528;SDS011;54366;51.980;5.856;2023-04-08T08:14:18;9.65;;;8.70;;
67528;SDS011;54366;51.980;5.856;2023-04-08T08:16:45;9.45;;;8.45;;
67528;SDS011;54366;51.980;5.856;2023-04-08T08:19:18;9.63;;;8.65;;
67528;SDS011;54366;51.980;5.856;2023-04-08T08:21:45;10.20;;;8.98;;
67528;SDS011;54366;51.980;5.856;2023-04-08T08:24:18;9.73;;;8.48;;
67528;SDS011;54366;51.980;5.856;2023-04-08T08:26:44;9.60;;;8.65;;
67528;SDS011;54366;51.980;5.856;2023-04-08T08:29:18;9.43;;;8.43;;
67528;SDS011;54366;51.980;5.856;2023-04-08T08:31:51;10.38;;;8.77;;
67528;SDS011;54366;51.980;5.856;2023-04-08T08:34:24;9.70;;;8.80;;
67528;SDS011;54366;51.980;5.856;2023-04-08T08:36:57;10.05;;;8.32;;
67528;SDS011;54366;51.980;5.856;2023-04-08T08:39:23;9.00;;;8.15;;
67528;SDS011;54366;51.980;5.856;2023-04-08T08:41:56;8.93;;;8.02;;
67528;SDS011;54366;51.980;5.856;2023-04-08T08:44:22;9.00;;;8.10;;
67528;SDS011;54366;51.980;5.856;2023-04-08T08:46:55;8.40;;;7.60;;
67528;SDS011;54366;51.980;5.856;2023-04-08T08:49:28;9.95;;;8.57;;
67528;SDS011;54366;51.980;5.856;2023-04-08T08:52:01;8.73;;;7.72;;
67528;SDS011;54366;51.980;5.856;2023-04-08T08:54:28;8.43;;;7.63;;
67528;SDS011;54366;51.980;5.856;2023-04-08T08:57:00;8.75;;;7.95;;
67528;SDS011;54366;51.980;5.856;2023-04-08T08:59:33;9.55;;;8.30;;
67528;SDS011;54366;51.980;5.856;2023-04-08T09:02:25;8.38;;;7.57;;
67528;SDS011;54366;51.980;5.856;2023-04-08T09:05:09;8.40;;;7.60;;
67528;SDS011;54366;51.980;5.856;2023-04-08T09:07:42;9.20;;;8.38;;
67528;SDS011;54366;51.980;5.856;2023-04-08T09:10:09;9.07;;;8.18;;
67528;SDS011;54366;51.980;5.856;2023-04-08T09:12:52;8.77;;;7.88;;
67528;SDS011;54366;51.980;5.856;2023-04-08T09:15:27;7.50;;;6.80;;
67528;SDS011;54366;51.980;5.856;2023-04-08T09:18:00;8.57;;;7.60;;
67528;SDS011;54366;51.980;5.856;2023-04-08T09:20:33;9.48;;;8.57;;
67528;SDS011;54366;51.980;5.856;2023-04-08T09:23:00;8.75;;;7.93;;
67528;SDS011;54366;51.980;5.856;2023-04-08T09:25:33;9.48;;;8.48;;
67528;SDS011;54366;51.980;5.856;2023-04-08T09:28:17;10.85;;;9.70;;
67528;SDS011;54366;51.980;5.856;2023-04-08T09:30:54;10.43;;;9.32;;
67528;SDS011;54366;51.980;5.856;2023-04-08T09:33:28;9.73;;;8.82;;
67528;SDS011;54366;51.980;5.856;2023-04-08T09:36:02;9.50;;;8.50;;
67528;SDS011;54366;51.980;5.856;2023-04-08T09:38:35;9.52;;;8.57;;
67528;SDS011;54366;51.980;5.856;2023-04-08T09:41:16;10.52;;;9.40;;
67528;SDS011;54366;51.980;5.856;2023-04-08T09:43:52;9.38;;;8.05;;
67528;SDS011;54366;51.980;5.856;2023-04-08T09:49:54;8.43;;;7.47;;
67528;SDS011;54366;51.980;5.856;2023-04-08T09:52:36;8.75;;;8.05;;
67528;SDS011;54366;51.980;5.856;2023-04-08T09:55:19;8.60;;;7.43;;
67528;SDS011;54366;51.980;5.856;2023-04-08T09:57:54;7.95;;;7.20;;
67528;SDS011;54366;51.980;5.856;2023-04-08T10:01:05;8.85;;;7.95;;
67528;SDS011;54366;51.980;5.856;2023-04-08T10:03:51;8.25;;;7.45;;
67528;SDS011;54366;51.980;5.856;2023-04-08T10:06:28;8.73;;;7.93;;
67528;SDS011;54366;51.980;5.856;2023-04-08T10:09:04;7.53;;;6.82;;
67528;SDS011;54366;51.980;5.856;2023-04-08T10:11:38;8.68;;;7.88;;
67528;SDS011;54366;51.980;5.856;2023-04-08T10:14:11;8.65;;;7.80;;
67528;SDS011;54366;51.980;5.856;2023-04-08T10:16:44;8.98;;;8.10;;
67528;SDS011;54366;51.980;5.856;2023-04-08T10:19:36;7.30;;;6.70;;
67528;SDS011;54366;51.980;5.856;2023-04-08T10:25:35;7.32;;;6.63;;
67528;SDS011;54366;51.980;5.856;2023-04-08T10:31:01;7.57;;;6.88;;
67528;SDS011;54366;51.980;5.856;2023-04-08T10:33:34;10.13;;;8.73;;
67528;SDS011;54366;51.980;5.856;2023-04-08T10:38:41;9.20;;;7.70;;
67528;SDS011;54366;51.980;5.856;2023-04-08T10:41:17;8.02;;;7.22;;
67528;SDS011;54366;51.980;5.856;2023-04-08T10:46:37;7.97;;;7.13;;
67528;SDS011;54366;51.980;5.856;2023-04-08T10:49:17;7.43;;;6.72;;
67528;SDS011;54366;51.980;5.856;2023-04-08T10:51:50;7.75;;;6.95;;
67528;SDS011;54366;51.980;5.856;2023-04-08T10:54:17;6.55;;;5.97;;
67528;SDS011;54366;51.980;5.856;2023-04-08T10:56:50;8.73;;;7.68;;
67528;SDS011;54366;51.980;5.856;2023-04-08T10:59:28;8.10;;;7.30;;
67528;SDS011;54366;51.980;5.856;2023-04-08T11:02:01;6.43;;;5.82;;
67528;SDS011;54366;51.980;5.856;2023-04-08T11:04:27;7.10;;;6.40;;
67528;SDS011;54366;51.980;5.856;2023-04-08T11:07:00;7.72;;;7.03;;
67528;SDS011;54366;51.980;5.856;2023-04-08T11:09:37;6.88;;;6.20;;
67528;SDS011;54366;51.980;5.856;2023-04-08T11:12:14;7.20;;;6.47;;
67528;SDS011;54366;51.980;5.856;2023-04-08T11:14:49;7.40;;;6.63;;
67528;SDS011;54366;51.980;5.856;2023-04-08T11:17:17;7.75;;;6.95;;
67528;SDS011;54366;51.980;5.856;2023-04-08T11:19:50;6.88;;;6.20;;
67528;SDS011;54366;51.980;5.856;2023-04-08T11:22:23;6.28;;;5.68;;
67528;SDS011;54366;51.980;5.856;2023-04-08T11:24:49;8.00;;;7.20;;
67528;SDS011;54366;51.980;5.856;2023-04-08T11:27:22;6.93;;;6.25;;
67528;SDS011;54366;51.980;5.856;2023-04-08T11:29:51;7.10;;;6.18;;
67528;SDS011;54366;51.980;5.856;2023-04-08T11:32:27;7.32;;;6.20;;
67528;SDS011;54366;51.980;5.856;2023-04-08T11:35:00;6.90;;;6.15;;
67528;SDS011;54366;51.980;5.856;2023-04-08T11:37:39;6.75;;;6.15;;
67528;SDS011;54366;51.980;5.856;2023-04-08T11:40:18;6.53;;;5.90;;
67528;SDS011;54366;51.980;5.856;2023-04-08T11:42:52;6.25;;;5.65;;
67528;SDS011;54366;51.980;5.856;2023-04-08T11:45:36;6.22;;;5.50;;
67528;SDS011;54366;51.980;5.856;2023-04-08T11:48:14;5.95;;;5.30;;
67528;SDS011;54366;51.980;5.856;2023-04-08T11:50:47;7.32;;;6.63;;
67528;SDS011;54366;51.980;5.856;2023-04-08T11:53:33;8.05;;;6.53;;
67528;SDS011;54366;51.980;5.856;2023-04-08T11:56:19;5.85;;;5.32;;
67528;SDS011;54366;51.980;5.856;2023-04-08T11:58:54;6.20;;;5.60;;
67528;SDS011;54366;51.980;5.856;2023-04-08T12:01:27;5.85;;;5.25;;
67528;SDS011;54366;51.980;5.856;2023-04-08T12:04:00;6.43;;;4.97;;
67528;SDS011;54366;51.980;5.856;2023-04-08T12:06:27;8.55;;;5.85;;
67528;SDS011;54366;51.980;5.856;2023-04-08T12:09:01;6.40;;;5.13;;
67528;SDS011;54366;51.980;5.856;2023-04-08T12:11:34;5.18;;;4.68;;
67528;SDS011;54366;51.980;5.856;2023-04-08T12:14:07;5.40;;;4.90;;
67528;SDS011;54366;51.980;5.856;2023-04-08T12:16:40;5.68;;;4.65;;
67528;SDS011;54366;51.980;5.856;2023-04-08T12:19:13;5.78;;;5.28;;
67528;SDS011;54366;51.980;5.856;2023-04-08T12:21:46;6.28;;;5.45;;
67528;SDS011;54366;51.980;5.856;2023-04-08T12:24:12;5.80;;;5.20;;
67528;SDS011;54366;51.980;5.856;2023-04-08T12:26:45;5.60;;;5.10;;
67528;SDS011;54366;51.980;5.856;2023-04-08T12:29:11;6.10;;;5.20;;
67528;SDS011;54366;51.980;5.856;2023-04-08T12:31:44;5.75;;;5.15;;
67528;SDS011;54366;51.980;5.856;2023-04-08T12:34:10;5.63;;;5.13;;
67528;SDS011;54366;51.980;5.856;2023-04-08T12:36:43;4.95;;;4.55;;
67528;SDS011;54366;51.980;5.856;2023-04-08T12:39:16;5.82;;;5.05;;
67528;SDS011;54366;51.980;5.856;2023-04-08T12:41:42;5.20;;;4.75;;
67528;SDS011;54366;51.980;5.856;2023-04-08T12:44:15;7.40;;;5.63;;
67528;SDS011;54366;51.980;5.856;2023-04-08T12:46:48;5.78;;;5.28;;
67528;SDS011;54366;51.980;5.856;2023-04-08T12:49:29;5.68;;;5.18;;
67528;SDS011;54366;51.980;5.856;2023-04-08T12:52:02;5.95;;;5.32;;
67528;SDS011;54366;51.980;5.856;2023-04-08T12:54:36;4.85;;;4.47;;
67528;SDS011;54366;51.980;5.856;2023-04-08T12:57:09;4.85;;;4.45;;
67528;SDS011;54366;51.980;5.856;2023-04-08T12:59:42;4.47;;;4.07;;
67528;SDS011;54366;51.980;5.856;2023-04-08T13:02:15;3.92;;;3.55;;
67528;SDS011;54366;51.980;5.856;2023-04-08T13:04:41;3.85;;;3.55;;
67528;SDS011;54366;51.980;5.856;2023-04-08T13:07:14;3.83;;;3.53;;
67528;SDS011;54366;51.980;5.856;2023-04-08T13:09:40;4.78;;;4.38;;
67528;SDS011;54366;51.980;5.856;2023-04-08T13:12:13;5.28;;;4.78;;
67528;SDS011;54366;51.980;5.856;2023-04-08T13:14:47;5.43;;;4.60;;
67528;SDS011;54366;51.980;5.856;2023-04-08T13:17:20;4.90;;;4.43;;
67528;SDS011;54366;51.980;5.856;2023-04-08T13:19:53;5.07;;;4.53;;
67528;SDS011;54366;51.980;5.856;2023-04-08T13:22:20;5.32;;;4.63;;
67528;SDS011;54366;51.980;5.856;2023-04-08T13:24:52;5.18;;;4.78;;
67528;SDS011;54366;51.980;5.856;2023-04-08T13:27:25;5.50;;;5.00;;
67528;SDS011;54366;51.980;5.856;2023-04-08T13:29:58;5.00;;;4.50;;
67528;SDS011;54366;51.980;5.856;2023-04-08T13:32:31;5.40;;;4.90;;
67528;SDS011;54366;51.980;5.856;2023-04-08T13:35:04;5.55;;;4.85;;
67528;SDS011;54366;51.980;5.856;2023-04-08T13:37:37;6.15;;;5.03;;
67528;SDS011;54366;51.980;5.856;2023-04-08T13:40:10;5.53;;;5.03;;
67528;SDS011;54366;51.980;5.856;2023-04-08T13:42:43;5.65;;;4.93;;
67528;SDS011;54366;51.980;5.856;2023-04-08T13:45:09;4.80;;;4.40;;
67528;SDS011;54366;51.980;5.856;2023-04-08T13:47:49;4.88;;;4.45;;
67528;SDS011;54366;51.980;5.856;2023-04-08T13:50:22;5.55;;;5.05;;
67528;SDS011;54366;51.980;5.856;2023-04-08T13:52:48;5.78;;;5.28;;
67528;SDS011;54366;51.980;5.856;2023-04-08T13:55:21;6.00;;;4.55;;
67528;SDS011;54366;51.980;5.856;2023-04-08T13:57:54;4.97;;;4.57;;
67528;SDS011;54366;51.980;5.856;2023-04-08T14:00:27;5.15;;;4.72;;
67528;SDS011;54366;51.980;5.856;2023-04-08T14:02:54;6.20;;;5.60;;
67528;SDS011;54366;51.980;5.856;2023-04-08T14:05:26;5.55;;;5.05;;
67528;SDS011;54366;51.980;5.856;2023-04-08T14:07:59;5.90;;;5.30;;
67528;SDS011;54366;51.980;5.856;2023-04-08T14:10:32;5.60;;;5.10;;
67528;SDS011;54366;51.980;5.856;2023-04-08T14:13:05;5.53;;;5.03;;
67528;SDS011;54366;51.980;5.856;2023-04-08T14:15:38;5.47;;;5.00;;
67528;SDS011;54366;51.980;5.856;2023-04-08T14:18:11;6.60;;;6.00;;
67528;SDS011;54366;51.980;5.856;2023-04-08T14:20:37;5.25;;;4.75;;
67528;SDS011;54366;51.980;5.856;2023-04-08T14:23:10;5.60;;;5.10;;
67528;SDS011;54366;51.980;5.856;2023-04-08T14:25:44;5.93;;;5.38;;
67528;SDS011;54366;51.980;5.856;2023-04-08T14:28:17;6.75;;;5.88;;
67528;SDS011;54366;51.980;5.856;2023-04-08T14:30:43;7.40;;;6.72;;
67528;SDS011;54366;51.980;5.856;2023-04-08T14:33:16;6.72;;;6.13;;
67528;SDS011;54366;51.980;5.856;2023-04-08T14:35:51;7.25;;;6.65;;
67528;SDS011;54366;51.980;5.856;2023-04-08T14:38:17;6.40;;;5.82;;
67528;SDS011;54366;51.980;5.856;2023-04-08T14:40:51;6.57;;;5.97;;
67528;SDS011;54366;51.980;5.856;2023-04-08T14:43:19;8.30;;;7.50;;
67528;SDS011;54366;51.980;5.856;2023-04-08T14:45:53;7.93;;;7.13;;
67528;SDS011;54366;51.980;5.856;2023-04-08T14:48:38;8.93;;;8.02;;
67528;SDS011;54366;51.980;5.856;2023-04-08T14:51:11;8.75;;;7.88;;
67528;SDS011;54366;51.980;5.856;2023-04-08T14:53:44;11.57;;;9.20;;
67528;SDS011;54366;51.980;5.856;2023-04-08T14:56:11;11.45;;;9.50;;
67528;SDS011;54366;51.980;5.856;2023-04-08T14:58:44;29.57;;;18.60;;
67528;SDS011;54366;51.980;5.856;2023-04-08T15:01:17;28.92;;;17.38;;
67528;SDS011;54366;51.980;5.856;2023-04-08T15:03:43;11.30;;;10.23;;
67528;SDS011;54366;51.980;5.856;2023-04-08T15:06:18;36.85;;;21.50;;
67528;SDS011;54366;51.980;5.856;2023-04-08T15:08:52;42.42;;;24.00;;
67528;SDS011;54366;51.980;5.856;2023-04-08T15:11:25;16.20;;;12.65;;
67528;SDS011;54366;51.980;5.856;2023-04-08T15:13:58;14.88;;;12.50;;
67528;SDS011;54366;51.980;5.856;2023-04-08T15:16:31;14.07;;;12.35;;
67528;SDS011;54366;51.980;5.856;2023-04-08T15:18:57;12.73;;;11.52;;
67528;SDS011;54366;51.980;5.856;2023-04-08T15:21:31;14.02;;;12.73;;
67528;SDS011;54366;51.980;5.856;2023-04-08T15:23:57;12.13;;;10.93;;
67528;SDS011;54366;51.980;5.856;2023-04-08T15:26:30;14.10;;;12.73;;
67528;SDS011;54366;51.980;5.856;2023-04-08T15:29:03;12.60;;;11.40;;
67528;SDS011;54366;51.980;5.856;2023-04-08T15:31:29;12.77;;;11.50;;
67528;SDS011;54366;51.980;5.856;2023-04-08T15:34:03;12.95;;;11.75;;
67528;SDS011;54366;51.980;5.856;2023-04-08T15:36:36;13.75;;;12.35;;
67528;SDS011;54366;51.980;5.856;2023-04-08T15:39:02;12.60;;;11.35;;
67528;SDS011;54366;51.980;5.856;2023-04-08T15:41:35;13.05;;;11.85;;
67528;SDS011;54366;51.980;5.856;2023-04-08T15:44:08;13.98;;;12.48;;
67528;SDS011;54366;51.980;5.856;2023-04-08T15:46:41;17.10;;;13.90;;